createdAt,value
2018-04-26T00:01:30.904Z,51.10
2018-04-26T00:03:59.315Z,51.30
2018-04-26T00:06:28.353Z,51.40
2018-04-26T00:08:56.672Z,51.30
2018-04-26T00:11:25.073Z,51.40
2018-04-26T00:13:54.263Z,50.90
2018-04-26T00:16:23.664Z,51.50
2018-04-26T00:18:52.864Z,51.00
2018-04-26T00:21:21.323Z,50.90
2018-04-26T00:23:49.613Z,50.90
2018-04-26T00:26:18.118Z,50.90
2018-04-26T00:28:46.396Z,50.50
2018-04-26T00:31:16.640Z,49.40
2018-04-26T00:33:45.094Z,49.40
2018-04-26T00:36:14.194Z,49.10
2018-04-26T00:38:42.565Z,49.10
2018-04-26T00:41:11.624Z,49.20
2018-04-26T00:43:40.048Z,49.10
2018-04-26T00:46:08.388Z,49.00
2018-04-26T00:48:36.720Z,48.70
2018-04-26T00:51:05.150Z,48.60
2018-04-26T00:53:33.549Z,49.00
2018-04-26T00:56:02.690Z,49.00
2018-04-26T00:58:31.029Z,49.00
2018-04-26T01:01:00.156Z,49.10
2018-04-26T01:03:28.515Z,49.10
2018-04-26T01:05:56.848Z,49.30
2018-04-26T01:08:25.170Z,49.50
2018-04-26T01:10:53.554Z,49.80
2018-04-26T01:13:21.900Z,49.40
2018-04-26T01:15:51.050Z,49.10
2018-04-26T01:18:19.593Z,49.10
2018-04-26T01:20:47.939Z,49.20
2018-04-26T01:23:16.243Z,49.20
2018-04-26T01:25:45.564Z,49.20
2018-04-26T01:28:13.925Z,49.00
2018-04-26T01:30:43.216Z,49.40
2018-04-26T01:33:12.296Z,50.20
2018-04-26T01:35:40.592Z,50.00
2018-04-26T01:38:09.700Z,50.70
2018-04-26T01:40:39.085Z,50.00
2018-04-26T01:43:08.114Z,50.10
2018-04-26T01:45:37.051Z,50.10
2018-04-26T01:48:06.420Z,50.10
2018-04-26T01:50:34.751Z,49.70
2018-04-26T01:53:03.895Z,50.70
2018-04-26T01:55:32.328Z,50.70
2018-04-26T01:58:01.420Z,50.80
2018-04-26T02:00:30.520Z,50.50
2018-04-26T02:02:59.795Z,50.90
2018-04-26T02:05:28.167Z,50.80
2018-04-26T02:07:56.540Z,51.20
2018-04-26T02:10:24.824Z,51.20
2018-04-26T02:12:53.089Z,51.40
2018-04-26T02:15:23.619Z,51.50
2018-04-26T02:17:52.560Z,51.80
2018-04-26T02:20:21.879Z,52.10
2018-04-26T02:22:50.240Z,52.10
2018-04-26T02:25:18.711Z,52.80
2018-04-26T02:27:47.778Z,53.00
2018-04-26T02:30:16.400Z,53.10
2018-04-26T02:32:44.769Z,53.60
2018-04-26T02:35:13.860Z,53.80
2018-04-26T02:37:42.921Z,53.80
2018-04-26T02:40:11.454Z,53.80
2018-04-26T02:42:39.766Z,54.30
2018-04-26T02:45:08.064Z,55.10
2018-04-26T02:47:36.382Z,56.20
2018-04-26T02:50:04.811Z,56.50
2018-04-26T02:52:33.199Z,56.70
2018-04-26T02:55:01.633Z,56.40
2018-04-26T02:57:29.951Z,56.90
2018-04-26T02:59:58.281Z,59.30
2018-04-26T03:02:26.576Z,58.20
2018-04-26T03:04:54.934Z,59.70
2018-04-26T03:07:23.323Z,59.20
2018-04-26T03:09:51.588Z,59.90
2018-04-26T03:12:19.999Z,60.20
2018-04-26T03:14:48.306Z,59.60
2018-04-26T03:17:16.611Z,59.40
2018-04-26T03:19:45.113Z,58.80
2018-04-26T03:22:13.494Z,59.30
2018-04-26T03:24:41.780Z,59.50
2018-04-26T03:27:11.225Z,59.40
2018-04-26T03:29:40.339Z,60.50
2018-04-26T03:32:09.420Z,61.00
2018-04-26T03:34:37.740Z,61.00
2018-04-26T03:37:06.176Z,60.70
2018-04-26T03:39:35.235Z,61.00
2018-04-26T03:42:03.574Z,61.00
2018-04-26T03:44:31.840Z,60.90
2018-04-26T03:47:01.046Z,61.10
2018-04-26T03:49:29.565Z,61.10
2018-04-26T03:51:57.820Z,61.00
2018-04-26T03:54:26.539Z,61.70
2018-04-26T03:56:54.951Z,62.00
2018-04-26T03:59:23.254Z,62.60
2018-04-26T04:02:10.611Z,63.00
2018-04-26T04:04:56.758Z,63.00
2018-04-26T04:07:25.126Z,63.20
2018-04-26T04:09:55.030Z,63.10
2018-04-26T04:12:23.319Z,62.60
2018-04-26T04:14:52.505Z,63.80
2018-04-26T04:17:21.072Z,63.90
2018-04-26T04:19:49.479Z,64.80
2018-04-26T04:22:18.686Z,65.10
2018-04-26T04:24:47.761Z,65.40
2018-04-26T04:27:17.185Z,65.20
2018-04-26T04:29:45.520Z,65.10
2018-04-26T04:32:13.847Z,65.20
2018-04-26T04:34:42.279Z,65.00
2018-04-26T04:37:10.841Z,64.70
2018-04-26T04:39:39.137Z,64.90
2018-04-26T04:42:09.635Z,64.20
2018-04-26T04:44:37.948Z,64.10
2018-04-26T04:47:08.581Z,63.90
2018-04-26T04:49:36.875Z,63.80
2018-04-26T04:52:05.249Z,63.20
2018-04-26T04:54:33.600Z,63.20
2018-04-26T04:57:01.895Z,63.70
2018-04-26T04:59:31.734Z,63.20
2018-04-26T05:02:00.857Z,62.50
2018-04-26T05:04:29.970Z,62.90
2018-04-26T05:06:58.251Z,62.90
2018-04-26T05:09:26.595Z,63.00
2018-04-26T05:11:54.938Z,64.60
2018-04-26T05:14:24.161Z,68.80
2018-04-26T05:16:52.471Z,68.80
2018-04-26T05:19:20.769Z,69.70
2018-04-26T05:21:49.084Z,69.30
2018-04-26T05:24:19.340Z,70.40
2018-04-26T05:26:47.652Z,70.40
2018-04-26T05:29:15.956Z,70.40
2018-04-26T05:31:45.264Z,68.10
2018-04-26T05:34:13.557Z,68.00
2018-04-26T05:36:41.845Z,67.80
2018-04-26T05:39:10.361Z,66.30
2018-04-26T05:41:39.537Z,67.00
2018-04-26T05:44:07.820Z,66.40
2018-04-26T05:46:36.121Z,68.00
2018-04-26T05:49:04.428Z,69.80
2018-04-26T05:51:32.722Z,70.40
2018-04-26T05:54:01.025Z,69.80
2018-04-26T05:56:29.422Z,70.00
2018-04-26T05:58:57.771Z,71.00
2018-04-26T06:01:26.074Z,70.60
2018-04-26T06:03:54.444Z,71.30
2018-04-26T06:36:23.444Z,73.30
2018-04-26T06:38:52.512Z,73.50
2018-04-26T06:41:20.792Z,73.50
2018-04-26T06:43:49.096Z,73.60
2018-04-26T06:46:17.645Z,72.60
2018-04-26T06:48:45.964Z,71.70
2018-04-26T06:51:14.317Z,70.00
2018-04-26T06:53:42.617Z,71.10
2018-04-26T06:56:11.030Z,72.60
2018-04-26T06:58:39.376Z,71.40
2018-04-26T07:01:08.607Z,71.00
2018-04-26T07:03:36.903Z,70.60
2018-04-26T07:06:05.223Z,71.00
2018-04-26T07:08:33.608Z,70.70
2018-04-26T07:11:02.708Z,70.70
2018-04-26T07:13:31.992Z,70.20
2018-04-26T07:16:00.547Z,70.20
2018-04-26T07:18:29.036Z,69.20
2018-04-26T07:20:57.325Z,69.30
2018-04-26T07:23:25.632Z,68.90
2018-04-26T07:25:54.717Z,68.90
2018-04-26T07:28:23.041Z,69.00
2018-04-26T07:30:51.504Z,67.60
2018-04-26T07:33:19.842Z,69.40
2018-04-26T07:35:48.261Z,70.10
2018-04-26T07:38:16.650Z,70.70
2018-04-26T07:40:44.936Z,70.30
2018-04-26T07:43:13.283Z,69.20
2018-04-26T07:45:41.683Z,68.80
2018-04-26T07:48:09.951Z,69.90
2018-04-26T07:50:38.297Z,70.30
2018-04-26T07:53:07.424Z,70.30
2018-04-26T07:55:36.508Z,70.40
2018-04-26T07:58:06.706Z,69.60
2018-04-26T08:00:35.026Z,69.60
2018-04-26T08:03:03.522Z,68.90
2018-04-26T08:05:31.910Z,70.20
2018-04-26T08:08:00.322Z,69.10
2018-04-26T08:10:28.827Z,68.80
2018-04-26T08:12:57.198Z,66.90
2018-04-26T08:15:26.288Z,66.70
2018-04-26T08:17:55.428Z,67.30
2018-04-26T08:20:23.772Z,67.30
2018-04-26T08:22:52.232Z,68.80
2018-04-26T08:25:21.376Z,66.50
2018-04-26T08:27:49.691Z,66.50
2018-04-26T08:30:18.082Z,66.60
2018-04-26T08:32:46.749Z,65.70
2018-04-26T08:35:16.381Z,61.60
2018-04-26T08:37:46.640Z,63.60
2018-04-26T08:40:15.069Z,63.50
2018-04-26T08:42:43.379Z,62.40
2018-04-26T08:45:11.746Z,64.10
2018-04-26T08:47:40.136Z,62.60
2018-04-26T08:50:08.425Z,63.70
2018-04-26T08:52:36.791Z,63.20
2018-04-26T08:55:05.237Z,62.90
2018-04-26T08:57:33.552Z,62.70
2018-04-26T09:00:01.863Z,62.50
2018-04-26T09:02:30.332Z,63.20
2018-04-26T09:04:58.786Z,63.00
2018-04-26T09:07:27.088Z,62.60
2018-04-26T09:09:57.412Z,59.10
2018-04-26T09:12:27.697Z,56.50
2018-04-26T09:14:56.848Z,55.90
2018-04-26T09:17:25.175Z,55.90
2018-04-26T09:19:54.248Z,55.60
2018-04-26T09:22:23.396Z,55.60
2018-04-26T09:24:51.666Z,54.90
2018-04-26T09:27:19.943Z,54.70
2018-04-26T09:29:48.396Z,53.30
2018-04-26T09:32:16.744Z,53.20
2018-04-26T09:34:45.077Z,53.60
2018-04-26T09:37:13.521Z,53.30
2018-04-26T09:39:41.830Z,53.00
2018-04-26T09:42:10.342Z,54.40
2018-04-26T09:44:38.730Z,52.20
2018-04-26T09:47:08.491Z,50.00
2018-04-26T09:49:36.827Z,50.10
2018-04-26T09:52:06.163Z,51.20
2018-04-26T09:54:34.461Z,51.20
2018-04-26T09:57:02.794Z,49.90
2018-04-26T09:59:31.968Z,54.80
2018-04-26T10:02:03.213Z,54.80
2018-04-26T10:04:37.229Z,55.30
2018-04-26T10:07:05.550Z,56.20
2018-04-26T10:09:33.837Z,56.60
2018-04-26T10:12:02.165Z,56.10
2018-04-26T10:14:30.472Z,58.70
2018-04-26T10:16:59.797Z,58.10
2018-04-26T10:19:28.106Z,57.90
2018-04-26T10:21:56.521Z,54.20
2018-04-26T10:24:25.590Z,59.70
2018-04-26T10:26:54.077Z,59.70
2018-04-26T10:29:22.379Z,60.10
2018-04-26T10:31:51.476Z,64.80
2018-04-26T10:34:20.671Z,62.20
2018-04-26T10:36:49.321Z,62.10
2018-04-26T10:39:17.625Z,61.00
2018-04-26T10:41:46.925Z,62.30
2018-04-26T10:44:16.202Z,60.80
2018-04-26T10:46:44.495Z,60.80
2018-04-26T10:49:13.565Z,60.10
2018-04-26T10:51:41.896Z,60.10
2018-04-26T10:54:11.669Z,60.70
2018-04-26T10:56:40.062Z,60.50
2018-04-26T10:59:09.130Z,60.00
2018-04-26T11:01:37.497Z,59.90
2018-04-26T11:04:06.817Z,56.80
2018-04-26T11:06:35.080Z,56.80
2018-04-26T11:09:03.396Z,54.10
2018-04-26T11:11:33.609Z,55.90
2018-04-26T11:14:01.980Z,55.90
2018-04-26T11:16:30.436Z,57.20
2018-04-26T11:18:58.762Z,55.60
2018-04-26T11:21:27.069Z,54.70
2018-04-26T11:23:55.710Z,55.00
2018-04-26T11:26:24.974Z,53.80
2018-04-26T11:28:53.306Z,53.70
2018-04-26T11:31:21.771Z,55.60
2018-04-26T11:33:50.838Z,56.00
2018-04-26T11:36:19.159Z,56.00
2018-04-26T11:38:47.528Z,55.00
2018-04-26T11:41:15.979Z,53.70
2018-04-26T11:43:44.552Z,49.50
2018-04-26T11:46:13.889Z,46.20
2018-04-26T11:48:42.983Z,47.30
2018-04-26T11:51:12.326Z,43.60
2018-04-26T11:53:40.692Z,43.60
2018-04-26T11:56:08.997Z,45.10
2018-04-26T11:58:37.368Z,42.80
2018-04-26T12:01:05.680Z,43.70
2018-04-26T12:03:34.813Z,43.90
2018-04-26T12:06:03.152Z,43.90
2018-04-26T12:08:32.278Z,47.00
2018-04-26T12:11:00.598Z,47.00
2018-04-26T12:13:29.034Z,47.30
2018-04-26T12:15:57.717Z,46.60
2018-04-26T12:18:26.032Z,46.90
2018-04-26T12:20:54.335Z,48.60
2018-04-26T12:23:22.679Z,43.10
2018-04-26T12:25:51.040Z,41.90
2018-04-26T12:28:19.561Z,39.50
2018-04-26T12:30:48.043Z,39.90
2018-04-26T12:33:16.391Z,38.10
2018-04-26T12:35:44.839Z,36.90
2018-04-26T12:38:13.144Z,37.30
2018-04-26T12:40:41.631Z,40.60
2018-04-26T12:43:10.051Z,41.40
2018-04-26T12:45:38.403Z,42.90
2018-04-26T12:48:06.969Z,43.80
2018-04-26T12:50:35.314Z,45.80
2018-04-26T12:53:04.815Z,43.40
2018-04-26T12:55:35.183Z,46.00
2018-04-26T12:58:03.722Z,46.00
2018-04-26T13:00:31.997Z,45.50
2018-04-26T13:03:01.180Z,40.80
2018-04-26T13:05:30.413Z,41.80
2018-04-26T13:07:58.836Z,41.80
2018-04-26T13:10:27.156Z,40.00
2018-04-26T13:12:55.526Z,41.00
2018-04-26T13:15:24.710Z,46.60
2018-04-26T13:17:53.313Z,46.60
2018-04-26T13:20:21.731Z,45.50
2018-04-26T13:22:50.274Z,45.50
2018-04-26T13:25:18.638Z,46.40
2018-04-26T13:27:47.140Z,46.80
2018-04-26T13:30:15.838Z,47.50
2018-04-26T13:32:44.967Z,46.00
2018-04-26T13:35:13.284Z,46.00
2018-04-26T13:37:42.417Z,47.80
2018-04-26T13:40:10.985Z,47.90
2018-04-26T13:42:39.481Z,46.50
2018-04-26T13:45:08.034Z,45.40
2018-04-26T13:47:36.376Z,44.80
2018-04-26T13:50:04.781Z,44.50
2018-04-26T13:52:33.986Z,46.70
2018-04-26T13:55:03.208Z,44.50
2018-04-26T13:57:31.563Z,44.50
2018-04-26T14:00:00.176Z,45.90
2018-04-26T14:02:28.784Z,45.10
2018-04-26T14:04:57.156Z,46.70
2018-04-26T14:07:26.508Z,51.20
2018-04-26T14:09:54.858Z,55.50
2018-04-26T14:12:23.376Z,55.50
2018-04-26T14:14:51.713Z,57.00
2018-04-26T14:17:21.248Z,54.20
2018-04-26T14:19:50.376Z,52.50
2018-04-26T14:22:18.806Z,52.40
2018-04-26T14:24:47.215Z,52.80
2018-04-26T14:27:15.581Z,51.00
2018-04-26T14:29:44.713Z,45.70
2018-04-26T14:32:13.278Z,45.80
2018-04-26T14:34:41.597Z,45.40
2018-04-26T14:37:11.022Z,40.90
2018-04-26T14:39:39.442Z,40.80
2018-04-26T14:42:07.746Z,41.50
2018-04-26T14:44:36.086Z,40.20
2018-04-26T14:47:04.861Z,41.30
2018-04-26T14:49:34.258Z,38.80
2018-04-26T14:52:03.571Z,39.50
2018-04-26T14:54:31.953Z,39.50
2018-04-26T14:57:00.490Z,37.60
2018-04-26T14:59:29.728Z,40.30
2018-04-26T15:01:58.357Z,40.30
2018-04-26T15:04:26.781Z,39.20
2018-04-26T15:06:55.128Z,41.10
2018-04-26T15:09:23.503Z,41.30
2018-04-26T15:11:51.928Z,40.80
2018-04-26T15:14:21.092Z,39.00
2018-04-26T15:16:49.547Z,39.00
2018-04-26T15:19:18.969Z,40.10
2018-04-26T15:21:47.345Z,40.10
2018-04-26T15:24:15.747Z,40.50
2018-04-26T15:26:44.914Z,41.00
2018-04-26T15:29:13.207Z,40.40
2018-04-26T15:31:41.816Z,42.40
2018-04-26T15:34:11.144Z,42.00
2018-04-26T15:36:39.507Z,42.00
2018-04-26T15:39:08.009Z,44.10
2018-04-26T15:41:36.329Z,44.00
2018-04-26T15:44:04.671Z,46.50
2018-04-26T15:46:33.014Z,46.70
2018-04-26T15:49:02.105Z,46.40
2018-04-26T15:51:30.664Z,46.40
2018-04-26T15:54:16.878Z,49.40
2018-04-26T15:57:03.808Z,49.90
2018-04-26T15:59:49.987Z,50.20
2018-04-26T16:02:57.694Z,41.60
2018-04-26T16:05:44.598Z,39.50
2018-04-26T16:08:36.773Z,40.10
2018-04-26T16:11:24.475Z,39.30
2018-04-26T16:14:05.827Z,42.70
2018-04-26T16:20:14.433Z,44.10
2018-04-26T16:23:05.687Z,44.10
2018-04-26T16:25:51.755Z,44.40
2018-04-26T16:28:43.443Z,43.50
2018-04-26T16:31:36.265Z,44.10
2018-04-26T16:34:22.077Z,44.00
2018-04-26T16:37:08.368Z,44.60
2018-04-26T16:39:36.871Z,42.80
2018-04-26T16:42:05.322Z,43.20
2018-04-26T16:44:34.462Z,40.00
2018-04-26T16:47:02.884Z,39.90
2018-04-26T16:49:31.306Z,39.10
2018-04-26T16:51:59.774Z,42.70
2018-04-26T16:54:28.300Z,42.00
2018-04-26T16:56:56.764Z,40.50
2018-04-26T16:59:25.106Z,38.70
2018-04-26T17:01:53.440Z,37.10
2018-04-26T17:04:23.528Z,36.80
2018-04-26T17:06:53.836Z,36.90
2018-04-26T17:09:22.915Z,36.80
2018-04-26T17:11:53.130Z,36.80
2018-04-26T17:14:23.440Z,36.50
2018-04-26T17:16:52.950Z,36.50
2018-04-26T17:19:23.252Z,36.00
2018-04-26T17:21:51.633Z,36.00
2018-04-26T17:24:20.005Z,36.50
2018-04-26T17:26:48.410Z,37.10
2018-04-26T17:29:16.794Z,36.90
2018-04-26T17:31:46.004Z,37.50
2018-04-26T17:34:15.090Z,38.50
2018-04-26T17:36:44.335Z,39.20
2018-04-26T17:39:12.932Z,39.10
2018-04-26T17:41:41.311Z,39.80
2018-04-26T17:44:10.184Z,40.60
2018-04-26T17:46:38.541Z,41.20
2018-04-26T17:49:07.013Z,41.80
2018-04-26T17:51:35.570Z,42.60
2018-04-26T17:54:04.100Z,42.30
2018-04-26T17:56:33.351Z,43.70
2018-04-26T17:59:04.391Z,57.50
2018-04-26T18:01:32.790Z,57.50
2018-04-26T18:04:02.080Z,61.30
2018-04-26T18:06:30.448Z,61.20
2018-04-26T18:08:58.881Z,63.10
2018-04-26T18:11:27.228Z,62.90
2018-04-26T18:13:56.614Z,65.00
2018-04-26T18:16:24.953Z,65.00
2018-04-26T18:18:53.300Z,68.00
2018-04-26T18:21:21.715Z,67.30
2018-04-26T18:23:50.253Z,68.60
2018-04-26T18:26:19.227Z,68.70
2018-04-26T18:28:47.694Z,66.80
2018-04-26T18:31:16.174Z,67.40
2018-04-26T18:33:46.915Z,64.90
2018-04-26T18:36:15.338Z,67.00
2018-04-26T18:38:43.948Z,65.50
2018-04-26T18:41:12.354Z,66.10
2018-04-26T18:43:40.706Z,66.50
2018-04-26T18:46:09.045Z,65.50
2018-04-26T18:48:37.409Z,66.10
2018-04-26T18:51:06.549Z,65.80
2018-04-26T18:53:35.055Z,65.70
2018-04-26T18:56:03.723Z,67.10
2018-04-26T18:58:32.110Z,66.90
2018-04-26T19:01:00.439Z,65.20
2018-04-26T19:03:28.799Z,64.80
2018-04-26T19:05:57.960Z,65.00
2018-04-26T19:08:26.349Z,65.00
2018-04-26T19:10:54.718Z,64.90
2018-04-26T19:13:23.356Z,64.40
2018-04-26T19:15:51.774Z,64.30
2018-04-26T19:18:20.122Z,63.70
2018-04-26T19:20:48.459Z,64.40
2018-04-26T19:23:17.279Z,63.60
2018-04-26T19:25:45.651Z,64.10
2018-04-26T19:28:15.000Z,66.10
2018-04-26T19:30:43.305Z,66.00
2018-04-26T19:33:11.748Z,66.50
2018-04-26T19:35:40.139Z,66.50
2018-04-26T19:38:08.640Z,65.30
2018-04-26T19:40:37.205Z,65.10
2018-04-26T19:43:06.187Z,65.20
2018-04-26T19:45:34.540Z,63.90
2018-04-26T19:48:02.909Z,64.80
2018-04-26T19:50:31.980Z,65.40
2018-04-26T19:53:01.091Z,66.00
2018-04-26T19:55:30.320Z,65.00
2018-04-26T19:57:58.845Z,65.00
2018-04-26T20:00:28.052Z,65.40
2018-04-26T20:02:57.170Z,64.90
2018-04-26T20:05:25.500Z,64.90
2018-04-26T20:07:53.942Z,64.90
2018-04-26T20:10:22.408Z,64.40
2018-04-26T20:12:50.867Z,63.90
2018-04-26T20:15:20.203Z,66.40
2018-04-26T20:17:48.687Z,66.90
2018-04-26T20:20:17.083Z,67.00
2018-04-26T20:22:45.746Z,66.60
2018-04-26T20:25:14.968Z,66.10
2018-04-26T20:27:43.414Z,66.10
2018-04-26T20:30:11.865Z,65.60
2018-04-26T20:32:40.374Z,65.90
2018-04-26T20:35:08.725Z,66.00
2018-04-26T20:37:37.135Z,65.40
2018-04-26T20:40:05.641Z,65.60
2018-04-26T20:42:33.988Z,65.60
2018-04-26T20:45:02.501Z,65.70
2018-04-26T20:47:30.985Z,66.00
2018-04-26T20:50:00.232Z,65.00
2018-04-26T20:52:29.332Z,65.40
2018-04-26T20:54:58.863Z,65.40
2018-04-26T20:57:27.204Z,65.20
2018-04-26T20:59:56.326Z,65.00
2018-04-26T21:02:24.688Z,64.70
2018-04-26T21:04:53.987Z,65.30
2018-04-26T21:07:23.087Z,64.70
2018-04-26T21:09:51.426Z,64.70
2018-04-26T21:12:19.757Z,64.70
2018-04-26T21:14:48.129Z,65.10
2018-04-26T21:17:16.560Z,66.00
2018-04-26T21:22:19.397Z,66.50
2018-04-26T21:24:47.883Z,66.70
2018-04-26T21:27:16.382Z,66.40
2018-04-26T21:29:44.702Z,65.90
2018-04-26T21:32:13.169Z,66.10
2018-04-26T21:34:41.520Z,65.60
2018-04-26T21:37:09.858Z,65.80
2018-04-26T21:39:38.276Z,64.90
2018-04-26T21:42:06.567Z,65.30
2018-04-26T21:44:34.935Z,64.00
2018-04-26T21:47:03.296Z,63.80
2018-04-26T21:49:31.003Z,63.50
2018-04-26T21:52:04.976Z,63.70
2018-04-26T21:54:38.820Z,63.50
2018-04-26T21:57:12.727Z,63.80
2018-04-26T21:59:46.605Z,65.10
2018-04-26T22:02:20.442Z,65.60
2018-04-26T22:04:55.531Z,65.30
2018-04-26T22:07:23.881Z,64.90
2018-04-26T22:09:52.172Z,65.20
2018-04-26T22:12:22.371Z,65.60
2018-04-26T22:14:50.734Z,65.60
2018-04-26T22:17:19.041Z,65.70
2018-04-26T22:19:48.107Z,66.00
2018-04-26T22:22:16.547Z,65.80
2018-04-26T22:24:44.874Z,66.20
2018-04-26T22:27:13.460Z,66.10
2018-04-26T22:29:42.830Z,65.60
2018-04-26T22:32:11.165Z,65.60
2018-04-26T22:34:39.604Z,65.40
2018-04-26T22:37:07.890Z,65.10
2018-04-26T22:39:36.346Z,65.00
2018-04-26T22:42:04.679Z,64.70
2018-04-26T22:44:32.974Z,65.00
2018-04-26T22:47:01.267Z,65.00
2018-04-26T22:49:29.879Z,64.90
2018-04-26T22:51:58.356Z,64.70
2018-04-26T22:54:26.669Z,65.10
2018-04-26T22:56:55.700Z,64.70
2018-04-26T22:59:23.981Z,64.70
2018-04-26T23:01:52.295Z,64.30
2018-04-26T23:04:20.581Z,64.70
2018-04-26T23:06:49.799Z,64.20
2018-04-26T23:09:18.071Z,63.90
2018-04-26T23:11:47.140Z,64.00
2018-04-26T23:14:15.436Z,63.90
2018-04-26T23:16:44.489Z,65.20
2018-04-26T23:19:12.829Z,65.20
2018-04-26T23:21:41.179Z,64.40
2018-04-26T23:24:11.465Z,63.80
2018-04-26T23:26:39.811Z,63.80
2018-04-26T23:29:08.146Z,64.20
2018-04-26T23:31:36.515Z,63.70
2018-04-26T23:34:04.855Z,63.70
2018-04-26T23:36:33.140Z,64.20
2018-04-26T23:39:01.566Z,63.90
2018-04-26T23:41:30.701Z,64.50
2018-04-26T23:43:59.023Z,64.50
2018-04-26T23:46:27.322Z,64.60
2018-04-26T23:48:56.379Z,65.10
2018-04-26T23:51:24.749Z,65.00
2018-04-26T23:53:53.046Z,64.60
2018-04-26T23:56:21.407Z,64.80
2018-04-26T23:58:49.674Z,64.40
